createdAt,value
2018-05-21T00:01:36.906Z,4.17
2018-05-21T00:04:04.849Z,4.35
2018-05-21T00:06:32.353Z,2.73
2018-05-21T00:08:59.901Z,2.67
2018-05-21T00:11:27.396Z,3.17
2018-05-21T00:13:54.908Z,2.73
2018-05-21T00:16:22.442Z,5.50
2018-05-21T00:18:49.945Z,2.90
2018-05-21T00:21:17.503Z,4.63
2018-05-21T00:23:45.017Z,4.90
2018-05-21T00:26:12.949Z,5.23
2018-05-21T00:28:40.442Z,4.67
2018-05-21T00:31:07.984Z,3.10
2018-05-21T00:33:35.492Z,3.97
2018-05-21T00:36:03.026Z,3.23
2018-05-21T00:38:30.692Z,2.87
2018-05-21T00:40:58.349Z,2.63
2018-05-21T00:43:25.852Z,4.30
2018-05-21T00:45:53.400Z,2.50
2018-05-21T00:48:20.896Z,3.10
2018-05-21T00:50:48.467Z,2.20
2018-05-21T00:53:15.973Z,2.60
2018-05-21T00:55:43.509Z,2.20
2018-05-21T00:58:11.157Z,3.67
2018-05-21T01:00:38.693Z,4.10
2018-05-21T01:03:06.323Z,2.87
2018-05-21T01:05:33.853Z,2.30
2018-05-21T01:08:01.349Z,2.63
2018-05-21T01:10:28.879Z,3.30
2018-05-21T01:12:56.697Z,3.03
2018-05-21T01:15:24.319Z,4.30
2018-05-21T01:17:51.823Z,3.77
2018-05-21T01:20:19.353Z,3.67
2018-05-21T01:22:46.905Z,3.50
2018-05-21T01:25:14.431Z,4.00
2018-05-21T01:27:42.035Z,2.90
2018-05-21T01:30:09.591Z,4.63
2018-05-21T01:32:37.085Z,2.87
2018-05-21T01:35:04.794Z,2.97
2018-05-21T01:37:32.301Z,4.50
2018-05-21T01:39:59.824Z,2.67
2018-05-21T01:42:27.317Z,3.00
2018-05-21T01:44:55.041Z,4.20
2018-05-21T01:47:22.673Z,3.30
2018-05-21T01:49:50.250Z,3.83
2018-05-21T01:52:17.785Z,4.10
2018-05-21T01:54:45.292Z,3.20
2018-05-21T01:57:12.910Z,3.40
2018-05-21T01:59:40.411Z,3.20
2018-05-21T02:02:07.969Z,3.90
2018-05-21T02:04:35.469Z,2.60
2018-05-21T02:07:02.997Z,2.50
2018-05-21T02:09:30.888Z,3.50
2018-05-21T02:11:58.453Z,3.63
2018-05-21T02:14:25.963Z,3.63
2018-05-21T02:16:53.503Z,3.03
2018-05-21T02:19:20.997Z,4.57
2018-05-21T02:21:48.521Z,3.73
2018-05-21T02:24:16.136Z,4.93
2018-05-21T02:26:43.797Z,6.87
2018-05-21T02:29:11.293Z,3.53
2018-05-21T02:31:38.826Z,2.80
2018-05-21T02:34:43.968Z,3.10
2018-05-21T02:37:11.493Z,4.03
2018-05-21T02:39:39.164Z,5.30
2018-05-21T02:42:08.560Z,3.27
2018-05-21T02:44:36.057Z,3.90
2018-05-21T02:47:03.585Z,3.53
2018-05-21T02:49:31.097Z,3.27
2018-05-21T02:51:58.620Z,3.00
2018-05-21T02:54:26.126Z,4.43
2018-05-21T02:56:53.654Z,3.07
2018-05-21T02:59:21.553Z,2.90
2018-05-21T03:01:49.100Z,3.67
2018-05-21T03:04:16.767Z,4.67
2018-05-21T03:06:44.294Z,2.80
2018-05-21T03:09:11.789Z,3.00
2018-05-21T03:11:39.339Z,2.53
2018-05-21T03:14:06.838Z,2.47
2018-05-21T03:16:34.370Z,3.67
2018-05-21T03:19:01.865Z,2.47
2018-05-21T03:21:29.402Z,2.13
2018-05-21T03:23:56.935Z,2.03
2018-05-21T03:26:24.473Z,4.20
2018-05-21T03:28:51.993Z,2.67
2018-05-21T03:31:19.898Z,4.37
2018-05-21T03:33:47.421Z,3.53
2018-05-21T03:36:14.913Z,5.63
2018-05-21T03:38:42.438Z,2.87
2018-05-21T03:41:09.996Z,4.47
2018-05-21T03:43:38.490Z,5.77
2018-05-21T03:46:06.138Z,3.43
2018-05-21T03:48:33.656Z,2.87
2018-05-21T03:51:01.153Z,4.47
2018-05-21T03:53:28.684Z,2.07
2018-05-21T03:55:56.368Z,2.47
2018-05-21T03:58:35.783Z,4.57
2018-05-21T04:01:14.993Z,12.60
2018-05-21T04:03:54.383Z,12.20
2018-05-21T04:06:21.886Z,21.97
2018-05-21T04:08:49.808Z,21.47
2018-05-21T04:11:17.337Z,14.23
2018-05-21T04:13:44.873Z,7.00
2018-05-21T04:16:12.775Z,5.90
2018-05-21T04:18:41.748Z,7.00
2018-05-21T04:21:09.177Z,5.10
2018-05-21T04:23:36.743Z,6.90
2018-05-21T04:26:04.243Z,3.93
2018-05-21T04:28:31.764Z,4.33
2018-05-21T04:30:59.434Z,5.70
2018-05-21T04:33:26.982Z,4.17
2018-05-21T04:35:54.487Z,4.37
2018-05-21T04:38:22.009Z,4.13
2018-05-21T04:40:49.623Z,6.20
2018-05-21T04:43:17.149Z,8.20
2018-05-21T04:45:44.677Z,6.53
2018-05-21T04:48:12.214Z,4.40
2018-05-21T04:50:39.884Z,6.67
2018-05-21T04:53:07.409Z,5.63
2018-05-21T04:55:35.305Z,6.53
2018-05-21T04:58:02.848Z,7.67
2018-05-21T05:00:30.341Z,5.10
2018-05-21T05:02:57.853Z,6.40
2018-05-21T05:05:25.362Z,11.43
2018-05-21T05:07:52.896Z,6.07
2018-05-21T05:10:20.413Z,8.17
2018-05-21T05:12:47.946Z,9.00
2018-05-21T05:15:15.462Z,6.23
2018-05-21T05:17:43.090Z,6.17
2018-05-21T05:20:10.584Z,8.27
2018-05-21T05:22:38.086Z,6.57
2018-05-21T05:25:06.024Z,6.53
2018-05-21T05:27:33.537Z,6.27
2018-05-21T05:30:01.070Z,5.97
2018-05-21T05:32:28.589Z,4.93
2018-05-21T05:34:56.880Z,5.53
2018-05-21T05:37:24.986Z,5.13
2018-05-21T05:39:52.514Z,3.93
2018-05-21T05:42:20.412Z,4.90
2018-05-21T05:44:47.945Z,4.82
2018-05-21T05:47:15.448Z,4.28
2018-05-21T05:49:44.215Z,4.53
2018-05-21T05:52:11.726Z,3.65
2018-05-21T05:54:39.254Z,3.87
2018-05-21T05:57:06.762Z,3.62
2018-05-21T05:59:34.304Z,4.97
2018-05-21T06:02:01.805Z,4.12
2018-05-21T06:04:29.329Z,4.07
2018-05-21T06:06:56.849Z,4.28
2018-05-21T06:09:24.397Z,4.75
2018-05-21T06:11:51.914Z,4.57
2018-05-21T06:14:19.614Z,2.90
2018-05-21T06:16:47.109Z,3.08
2018-05-21T06:19:14.654Z,4.60
2018-05-21T06:21:42.232Z,3.12
2018-05-21T06:24:09.766Z,4.30
2018-05-21T06:26:37.261Z,4.60
2018-05-21T06:29:04.785Z,3.10
2018-05-21T06:31:32.290Z,2.78
2018-05-21T06:33:59.919Z,2.87
2018-05-21T06:36:27.329Z,3.20
2018-05-21T06:38:54.859Z,3.05
2018-05-21T06:41:22.389Z,3.65
2018-05-21T06:43:49.929Z,3.80
2018-05-21T06:46:17.436Z,2.67
2018-05-21T06:48:45.042Z,3.12
2018-05-21T06:51:12.602Z,3.03
2018-05-21T06:53:40.115Z,4.03
2018-05-21T06:56:07.652Z,3.97
2018-05-21T06:58:35.153Z,2.97
2018-05-21T07:01:03.692Z,3.12
2018-05-21T07:03:31.397Z,2.87
2018-05-21T07:05:58.926Z,3.78
2018-05-21T07:08:26.841Z,5.95
2018-05-21T07:10:54.379Z,2.12
2018-05-21T07:13:22.038Z,2.33
2018-05-21T07:15:49.566Z,2.83
2018-05-21T07:18:17.535Z,2.72
2018-05-21T07:20:45.018Z,2.83
2018-05-21T07:23:12.516Z,2.50
2018-05-21T07:25:40.962Z,2.60
2018-05-21T07:28:08.616Z,2.95
2018-05-21T07:30:36.145Z,3.53
2018-05-21T07:33:03.648Z,3.95
2018-05-21T07:35:31.369Z,4.20
2018-05-21T07:37:58.877Z,2.20
2018-05-21T07:40:26.415Z,2.62
2018-05-21T07:42:53.921Z,2.40
2018-05-21T07:45:21.531Z,2.47
2018-05-21T07:47:49.369Z,2.47
2018-05-21T07:50:16.911Z,2.67
2018-05-21T07:52:44.423Z,2.30
2018-05-21T07:55:12.041Z,2.85
2018-05-21T07:57:39.558Z,2.05
2018-05-21T08:00:07.486Z,1.87
2018-05-21T08:02:34.982Z,2.62
2018-05-21T08:05:02.517Z,3.20
2018-05-21T08:07:30.037Z,2.10
2018-05-21T08:09:57.582Z,2.85
2018-05-21T08:12:27.321Z,2.78
2018-05-21T08:14:54.974Z,2.60
2018-05-21T08:17:23.074Z,2.12
2018-05-21T08:19:51.009Z,1.85
2018-05-21T08:22:18.604Z,2.78
2018-05-21T08:24:46.057Z,2.00
2018-05-21T08:27:13.985Z,2.20
2018-05-21T08:29:41.498Z,3.20
2018-05-21T08:32:09.032Z,3.85
2018-05-21T08:34:36.935Z,2.10
2018-05-21T08:37:04.474Z,1.80
2018-05-21T08:39:31.991Z,3.10
2018-05-21T08:41:59.528Z,2.12
2018-05-21T08:44:27.038Z,2.90
2018-05-21T08:46:54.596Z,6.10
2018-05-21T08:49:22.101Z,2.25
2018-05-21T08:51:49.630Z,2.40
2018-05-21T08:54:17.153Z,2.42
2018-05-21T08:56:44.682Z,3.90
2018-05-21T08:59:12.199Z,2.35
2018-05-21T09:01:39.733Z,2.60
2018-05-21T09:04:07.249Z,1.70
2018-05-21T09:06:34.945Z,4.20
2018-05-21T09:09:02.455Z,2.00
2018-05-21T09:11:30.000Z,2.03
2018-05-21T09:13:57.499Z,4.03
2018-05-21T09:16:25.153Z,2.45
2018-05-21T09:18:52.638Z,1.98
2018-05-21T09:21:20.167Z,2.00
2018-05-21T09:23:48.067Z,2.10
2018-05-21T09:26:15.603Z,2.28
2018-05-21T09:28:43.114Z,2.67
2018-05-21T09:31:10.730Z,2.47
2018-05-21T09:33:38.237Z,2.40
2018-05-21T09:36:05.841Z,1.80
2018-05-21T09:38:33.341Z,2.03
2018-05-21T09:41:00.862Z,1.90
2018-05-21T09:43:28.398Z,2.10
2018-05-21T09:45:55.935Z,1.60
2018-05-21T09:48:23.440Z,4.35
2018-05-21T09:50:50.989Z,2.45
2018-05-21T09:53:18.622Z,1.90
2018-05-21T09:55:46.281Z,2.20
2018-05-21T09:58:13.809Z,1.98
2018-05-21T10:00:41.706Z,1.85
2018-05-21T10:03:09.250Z,1.67
2018-05-21T10:05:36.772Z,1.50
2018-05-21T10:08:04.318Z,3.35
2018-05-21T10:10:31.824Z,2.62
2018-05-21T10:13:00.300Z,2.05
2018-05-21T10:15:27.814Z,1.75
2018-05-21T10:17:55.420Z,1.73
2018-05-21T10:20:22.933Z,1.73
2018-05-21T10:22:50.469Z,2.65
2018-05-21T10:25:17.964Z,1.85
2018-05-21T10:27:45.650Z,1.50
2018-05-21T10:30:13.149Z,1.55
2018-05-21T10:32:40.673Z,2.53
2018-05-21T10:35:08.175Z,1.70
2018-05-21T10:37:35.877Z,1.30
2018-05-21T10:40:03.520Z,1.85
2018-05-21T10:42:31.049Z,2.67
2018-05-21T10:44:59.027Z,2.17
2018-05-21T10:47:26.511Z,1.50
2018-05-21T10:49:54.005Z,1.73
2018-05-21T10:52:21.533Z,1.37
2018-05-21T10:54:49.084Z,1.90
2018-05-21T10:57:16.620Z,1.85
2018-05-21T10:59:44.857Z,1.37
2018-05-21T11:02:12.464Z,1.65
2018-05-21T11:04:40.043Z,1.77
2018-05-21T11:07:07.917Z,2.95
2018-05-21T11:09:35.417Z,1.60
2018-05-21T11:12:03.565Z,2.28
2018-05-21T11:14:31.483Z,1.58
2018-05-21T11:16:59.012Z,1.40
2018-05-21T11:19:26.573Z,1.85
2018-05-21T11:21:54.472Z,1.83
2018-05-21T11:24:21.971Z,1.40
2018-05-21T11:26:49.664Z,1.77
2018-05-21T11:29:17.172Z,1.50
2018-05-21T11:31:44.702Z,1.20
2018-05-21T11:34:12.206Z,2.03
2018-05-21T11:36:39.717Z,1.50
2018-05-21T11:39:07.346Z,2.10
2018-05-21T11:41:34.859Z,1.20
2018-05-21T11:44:02.788Z,1.92
2018-05-21T11:46:30.295Z,1.95
2018-05-21T11:48:57.830Z,2.00
2018-05-21T11:51:25.331Z,1.52
2018-05-21T11:53:52.865Z,2.95
2018-05-21T11:56:20.375Z,1.37
2018-05-21T11:58:47.949Z,1.62
2018-05-21T12:01:15.437Z,1.50
2018-05-21T12:03:42.961Z,1.40
2018-05-21T12:06:10.856Z,1.50
2018-05-21T12:08:38.390Z,2.17
2018-05-21T12:11:05.907Z,2.15
2018-05-21T12:13:33.437Z,1.42
2018-05-21T12:16:00.995Z,1.65
2018-05-21T12:18:28.529Z,1.60
2018-05-21T12:20:56.045Z,1.67
2018-05-21T12:23:23.573Z,1.90
2018-05-21T12:25:51.101Z,3.47
2018-05-21T12:28:18.651Z,1.80
2018-05-21T12:30:46.150Z,2.72
2018-05-21T12:33:13.685Z,2.05
2018-05-21T12:35:41.238Z,1.80
2018-05-21T12:38:08.768Z,4.05
2018-05-21T12:40:37.044Z,1.75
2018-05-21T12:43:04.970Z,1.70
2018-05-21T12:45:32.493Z,3.17
2018-05-21T12:48:00.029Z,2.55
2018-05-21T12:50:27.605Z,1.98
2018-05-21T12:52:55.136Z,2.00
2018-05-21T12:55:22.650Z,1.98
2018-05-21T12:57:50.197Z,2.17
2018-05-21T13:00:17.701Z,1.87
2018-05-21T13:02:45.217Z,1.52
2018-05-21T13:05:12.754Z,1.90
2018-05-21T13:07:40.261Z,2.15
2018-05-21T13:10:07.953Z,1.80
2018-05-21T13:12:35.454Z,1.67
2018-05-21T13:15:02.991Z,2.45
2018-05-21T13:17:30.500Z,1.58
2018-05-21T13:19:58.038Z,1.67
2018-05-21T13:22:25.536Z,1.80
2018-05-21T13:24:53.080Z,2.15
2018-05-21T13:27:20.581Z,1.75
2018-05-21T13:29:48.296Z,1.40
2018-05-21T13:32:15.798Z,1.77
2018-05-21T13:34:44.322Z,1.83
2018-05-21T13:37:11.761Z,2.25
2018-05-21T13:39:39.746Z,2.60
2018-05-21T13:42:07.265Z,3.62
2018-05-21T13:44:34.816Z,2.05
2018-05-21T13:47:02.337Z,1.60
2018-05-21T13:49:29.954Z,3.90
2018-05-21T13:51:57.465Z,2.97
2018-05-21T13:54:25.002Z,2.35
2018-05-21T13:56:56.231Z,2.35
2018-05-21T13:59:23.760Z,2.53
2018-05-21T14:01:52.320Z,2.08
2018-05-21T14:04:19.852Z,2.33
2018-05-21T14:06:47.361Z,2.53
2018-05-21T14:09:14.899Z,3.30
2018-05-21T14:11:42.397Z,2.60
2018-05-21T14:14:09.919Z,1.80
2018-05-21T14:16:37.447Z,2.33
2018-05-21T14:19:05.001Z,2.10
2018-05-21T14:21:32.619Z,2.78
2018-05-21T14:24:00.075Z,2.30
2018-05-21T14:26:27.626Z,2.00
2018-05-21T14:28:55.133Z,1.80
2018-05-21T14:31:22.659Z,1.90
2018-05-21T14:33:50.167Z,3.45
2018-05-21T14:36:17.699Z,2.08
2018-05-21T14:38:45.602Z,1.98
2018-05-21T14:41:13.147Z,1.58
2018-05-21T14:43:41.525Z,1.65
2018-05-21T14:46:10.043Z,1.33
2018-05-21T14:48:37.541Z,1.10
2018-05-21T14:51:05.461Z,2.45
2018-05-21T14:53:33.002Z,1.20
2018-05-21T14:56:00.656Z,1.12
2018-05-21T14:58:28.319Z,1.23
2018-05-21T15:00:55.874Z,0.95
2018-05-21T15:03:23.372Z,3.50
2018-05-21T15:05:50.893Z,2.33
2018-05-21T15:08:18.392Z,2.25
2018-05-21T15:10:45.914Z,2.62
2018-05-21T15:13:13.427Z,3.75
2018-05-21T15:15:40.953Z,1.30
2018-05-21T15:18:09.312Z,1.25
2018-05-21T15:20:36.861Z,1.30
2018-05-21T15:23:04.360Z,4.05
2018-05-21T15:25:31.886Z,1.83
2018-05-21T15:27:59.402Z,6.20
2018-05-21T15:30:26.963Z,4.70
2018-05-21T15:32:54.524Z,1.12
2018-05-21T15:35:22.379Z,1.75
2018-05-21T15:37:49.889Z,1.55
2018-05-21T15:40:17.786Z,1.58
2018-05-21T15:42:45.328Z,3.28
2018-05-21T15:45:12.823Z,2.47
2018-05-21T15:47:40.361Z,2.90
2018-05-21T15:50:07.939Z,2.37
2018-05-21T15:52:35.476Z,3.62
2018-05-21T15:55:02.982Z,2.22
2018-05-21T15:57:30.559Z,2.58
2018-05-21T15:59:58.041Z,1.80
2018-05-21T16:02:25.805Z,2.60
2018-05-21T16:04:53.350Z,2.25
2018-05-21T16:07:20.877Z,1.70
2018-05-21T16:09:48.378Z,1.58
2018-05-21T16:12:15.912Z,2.67
2018-05-21T16:14:43.479Z,5.10
2018-05-21T16:17:11.025Z,1.90
2018-05-21T16:19:38.585Z,2.65
2018-05-21T16:22:06.140Z,1.62
2018-05-21T16:24:33.654Z,1.67
2018-05-21T16:27:01.181Z,1.90
2018-05-21T16:29:28.677Z,2.67
2018-05-21T16:31:56.622Z,4.85
2018-05-21T16:34:24.149Z,2.70
2018-05-21T16:36:51.705Z,3.42
2018-05-21T16:39:19.202Z,2.60
2018-05-21T16:41:46.757Z,3.08
2018-05-21T16:44:15.388Z,1.55
2018-05-21T16:46:42.930Z,2.83
2018-05-21T16:49:10.442Z,11.63
2018-05-21T16:51:37.979Z,3.53
2018-05-21T16:54:05.486Z,3.25
2018-05-21T16:56:33.412Z,4.00
2018-05-21T16:59:00.918Z,2.50
2018-05-21T17:01:28.468Z,2.72
2018-05-21T17:03:55.992Z,1.55
2018-05-21T17:06:23.548Z,4.43
2018-05-21T17:08:51.160Z,2.40
2018-05-21T17:11:18.677Z,2.55
2018-05-21T17:13:46.597Z,3.03
2018-05-21T17:16:14.100Z,3.42
2018-05-21T17:18:41.634Z,4.90
2018-05-21T17:21:09.248Z,2.20
2018-05-21T17:23:36.782Z,1.65
2018-05-21T17:26:04.345Z,2.85
2018-05-21T17:28:33.117Z,3.62
2018-05-21T17:31:01.755Z,2.08
2018-05-21T17:33:29.281Z,3.37
2018-05-21T17:35:56.838Z,2.40
2018-05-21T17:38:24.494Z,5.07
2018-05-21T17:40:51.990Z,2.35
2018-05-21T17:43:19.608Z,2.60
2018-05-21T17:45:47.352Z,5.37
2018-05-21T17:48:14.913Z,2.67
2018-05-21T17:50:42.429Z,1.50
2018-05-21T17:53:09.966Z,4.25
2018-05-21T17:55:37.470Z,1.70
2018-05-21T17:58:05.004Z,1.77
2018-05-21T18:00:32.911Z,2.20
2018-05-21T18:03:00.437Z,1.73
2018-05-21T18:05:27.947Z,1.58
2018-05-21T18:07:55.477Z,1.98
2018-05-21T18:10:22.985Z,2.97
2018-05-21T18:12:50.696Z,1.85
2018-05-21T18:15:18.197Z,2.03
2018-05-21T18:17:45.724Z,1.75
2018-05-21T18:20:13.225Z,1.62
2018-05-21T18:22:40.921Z,3.55
2018-05-21T18:25:08.431Z,2.17
2018-05-21T18:27:36.381Z,3.50
2018-05-21T18:30:03.901Z,2.40
2018-05-21T18:32:31.429Z,2.42
2018-05-21T18:34:58.937Z,3.25
2018-05-21T18:37:26.516Z,3.03
2018-05-21T18:39:54.454Z,2.80
2018-05-21T18:42:22.043Z,4.07
2018-05-21T18:44:49.523Z,3.17
2018-05-21T18:47:19.987Z,4.53
2018-05-21T18:49:47.530Z,3.85
2018-05-21T18:52:15.073Z,2.85
2018-05-21T18:54:42.597Z,2.80
2018-05-21T18:57:10.598Z,2.25
2018-05-21T18:59:38.139Z,2.83
2018-05-21T19:02:05.649Z,2.33
2018-05-21T19:04:33.605Z,3.60
2018-05-21T19:07:01.117Z,2.53
2018-05-21T19:09:28.684Z,4.47
2018-05-21T19:11:56.188Z,2.72
2018-05-21T19:14:23.735Z,2.53
2018-05-21T19:16:51.257Z,9.45
2018-05-21T19:19:18.785Z,2.62
2018-05-21T19:21:46.681Z,2.20
2018-05-21T19:24:14.212Z,3.47
2018-05-21T19:26:41.718Z,3.40
2018-05-21T19:29:09.244Z,3.30
2018-05-21T19:31:36.742Z,2.00
2018-05-21T19:34:04.273Z,4.10
2018-05-21T19:36:31.884Z,2.95
2018-05-21T19:38:59.416Z,3.92
2018-05-21T19:41:27.033Z,2.50
2018-05-21T19:43:54.575Z,6.75
2018-05-21T19:46:22.121Z,2.40
2018-05-21T19:48:51.372Z,2.95
2018-05-21T19:51:18.880Z,3.97
2018-05-21T19:53:46.541Z,3.58
2018-05-21T19:56:14.041Z,3.30
2018-05-21T19:58:41.564Z,3.25
2018-05-21T20:01:09.154Z,4.40
2018-05-21T20:03:36.685Z,3.37
2018-05-21T20:06:04.194Z,3.97
2018-05-21T20:08:31.703Z,6.82
2018-05-21T20:10:59.877Z,3.80
2018-05-21T20:13:27.385Z,3.90
2018-05-21T20:15:54.927Z,5.37
2018-05-21T20:18:33.973Z,5.00
2018-05-21T20:21:01.524Z,3.87
2018-05-21T20:23:29.028Z,3.70
2018-05-21T20:25:56.561Z,4.28
2018-05-21T20:28:24.078Z,4.00
2018-05-21T20:30:52.015Z,4.30
2018-05-21T20:33:19.967Z,3.78
2018-05-21T20:35:47.514Z,2.90
2018-05-21T20:38:15.054Z,3.35
2018-05-21T20:40:42.608Z,3.05
2018-05-21T20:43:10.121Z,2.97
2018-05-21T20:45:37.649Z,2.05
2018-05-21T20:48:05.288Z,4.03
2018-05-21T20:50:32.833Z,3.08
2018-05-21T20:53:00.328Z,2.40
2018-05-21T20:55:27.862Z,3.92
2018-05-21T20:57:55.492Z,3.87
2018-05-21T21:00:23.039Z,2.30
2018-05-21T21:02:50.551Z,5.43
2018-05-21T21:05:18.363Z,3.12
2018-05-21T21:07:45.869Z,2.45
2018-05-21T21:10:13.402Z,2.37
2018-05-21T21:12:40.909Z,2.53
2018-05-21T21:15:08.853Z,4.05
2018-05-21T21:17:36.358Z,1.42
2018-05-21T21:20:03.898Z,2.55
2018-05-21T21:22:32.217Z,1.70
2018-05-21T21:24:59.737Z,2.40
2018-05-21T21:27:27.237Z,1.80
2018-05-21T21:29:56.220Z,1.98
2018-05-21T21:32:23.810Z,1.15
2018-05-21T21:34:51.286Z,1.33
2018-05-21T21:37:18.799Z,5.53
2018-05-21T21:39:46.324Z,3.03
2018-05-21T21:42:13.833Z,2.28
2018-05-21T21:44:41.760Z,1.73
2018-05-21T21:47:09.280Z,2.67
2018-05-21T21:49:36.784Z,4.37
2018-05-21T21:52:04.406Z,1.80
2018-05-21T21:54:31.908Z,2.40
2018-05-21T21:56:59.449Z,1.65
2018-05-21T21:59:26.949Z,1.42
2018-05-21T22:01:54.493Z,1.70
2018-05-21T22:04:22.482Z,2.05
2018-05-21T22:06:50.003Z,2.97
2018-05-21T22:09:17.726Z,1.80
2018-05-21T22:11:45.264Z,1.85
2018-05-21T22:14:12.919Z,1.52
2018-05-21T22:16:40.445Z,1.48
2018-05-21T22:19:08.346Z,2.70
2018-05-21T22:21:35.865Z,1.10
2018-05-21T22:24:03.362Z,1.60
2018-05-21T22:26:31.040Z,1.53
2018-05-21T22:28:58.545Z,4.85
2018-05-21T22:31:26.081Z,1.73
2018-05-21T22:33:53.581Z,2.08
2018-05-21T22:36:21.135Z,1.73
2018-05-21T22:38:48.687Z,2.15
2018-05-21T22:41:16.225Z,1.73
2018-05-21T22:43:45.206Z,1.40
2018-05-21T22:46:12.740Z,1.48
2018-05-21T22:48:40.335Z,1.47
2018-05-21T22:51:07.909Z,3.43
2018-05-21T22:53:35.463Z,1.70
2018-05-21T22:56:03.001Z,1.45
2018-05-21T22:58:30.505Z,2.60
2018-05-21T23:00:58.238Z,1.40
2018-05-21T23:03:26.745Z,1.30
2018-05-21T23:05:54.367Z,1.70
2018-05-21T23:08:21.876Z,1.33
2018-05-21T23:10:49.425Z,2.22
2018-05-21T23:13:16.925Z,1.20
2018-05-21T23:15:44.473Z,1.25
2018-05-21T23:18:12.046Z,2.30
2018-05-21T23:20:39.557Z,2.73
2018-05-21T23:23:07.131Z,1.47
2018-05-21T23:25:34.670Z,2.07
2018-05-21T23:28:02.210Z,1.57
2018-05-21T23:30:29.705Z,1.37
2018-05-21T23:32:57.237Z,3.30
2018-05-21T23:35:24.743Z,1.90
2018-05-21T23:37:52.285Z,5.57
2018-05-21T23:40:19.907Z,2.27
2018-05-21T23:42:47.609Z,1.50
2018-05-21T23:45:15.257Z,1.77
2018-05-21T23:47:42.784Z,1.80
2018-05-21T23:50:10.694Z,3.58
2018-05-21T23:52:38.221Z,2.92
2018-05-21T23:55:05.737Z,1.60
2018-05-21T23:57:33.267Z,3.07
